sensor_id;sensor_type;location;lat;lon;timestamp;temperature;humidity
24678;DHT22;12800;53.094;8.778;2022-09-13T00:00:15;19.90;67.10
24678;DHT22;12800;53.094;8.778;2022-09-13T00:02:41;19.90;67.10
24678;DHT22;12800;53.094;8.778;2022-09-13T00:05:07;19.90;67.10
24678;DHT22;12800;53.094;8.778;2022-09-13T00:07:32;19.80;67.20
24678;DHT22;12800;53.094;8.778;2022-09-13T00:09:58;19.80;67.20
24678;DHT22;12800;53.094;8.778;2022-09-13T00:12:24;19.90;67.40
24678;DHT22;12800;53.094;8.778;2022-09-13T00:14:49;19.80;67.30
24678;DHT22;12800;53.094;8.778;2022-09-13T00:17:16;19.80;67.40
24678;DHT22;12800;53.094;8.778;2022-09-13T00:19:41;19.80;67.40
24678;DHT22;12800;53.094;8.778;2022-09-13T00:22:07;19.80;67.50
24678;DHT22;12800;53.094;8.778;2022-09-13T00:24:32;19.80;67.50
24678;DHT22;12800;53.094;8.778;2022-09-13T00:26:59;19.80;67.60
24678;DHT22;12800;53.094;8.778;2022-09-13T00:29:26;19.80;67.60
24678;DHT22;12800;53.094;8.778;2022-09-13T00:31:51;19.80;68.50
24678;DHT22;12800;53.094;8.778;2022-09-13T00:34:17;19.80;67.80
24678;DHT22;12800;53.094;8.778;2022-09-13T00:36:43;19.80;67.90
24678;DHT22;12800;53.094;8.778;2022-09-13T00:39:09;19.80;68.10
24678;DHT22;12800;53.094;8.778;2022-09-13T00:41:35;19.80;68.30
24678;DHT22;12800;53.094;8.778;2022-09-13T00:44:01;19.80;69.10
24678;DHT22;12800;53.094;8.778;2022-09-13T00:46:43;19.80;70.40
24678;DHT22;12800;53.094;8.778;2022-09-13T00:49:32;19.70;71.60
24678;DHT22;12800;53.094;8.778;2022-09-13T00:52:04;19.70;72.40
24678;DHT22;12800;53.094;8.778;2022-09-13T00:54:39;19.60;73.20
24678;DHT22;12800;53.094;8.778;2022-09-13T00:57:08;19.60;73.80
24678;DHT22;12800;53.094;8.778;2022-09-13T00:59:59;19.50;73.70
24678;DHT22;12800;53.094;8.778;2022-09-13T01:02:29;19.50;74.10
24678;DHT22;12800;53.094;8.778;2022-09-13T01:04:54;19.40;74.20
24678;DHT22;12800;53.094;8.778;2022-09-13T01:07:20;19.40;74.30
24678;DHT22;12800;53.094;8.778;2022-09-13T01:09:48;19.30;74.80
24678;DHT22;12800;53.094;8.778;2022-09-13T01:12:27;19.30;75.50
24678;DHT22;12800;53.094;8.778;2022-09-13T01:14:56;19.20;75.90
24678;DHT22;12800;53.094;8.778;2022-09-13T01:17:25;19.20;76.40
24678;DHT22;12800;53.094;8.778;2022-09-13T01:19:51;19.20;76.70
24678;DHT22;12800;53.094;8.778;2022-09-13T01:38:57;18.90;78.80
24678;DHT22;12800;53.094;8.778;2022-09-13T01:41:53;18.90;79.20
24678;DHT22;12800;53.094;8.778;2022-09-13T01:44:45;18.90;79.30
24678;DHT22;12800;53.094;8.778;2022-09-13T01:47:26;18.90;79.40
24678;DHT22;12800;53.094;8.778;2022-09-13T01:56:00;18.90;80.00
24678;DHT22;12800;53.094;8.778;2022-09-13T01:58:48;18.90;80.20
24678;DHT22;12800;53.094;8.778;2022-09-13T02:01:25;18.90;80.30
24678;DHT22;12800;53.094;8.778;2022-09-13T02:04:12;18.80;80.40
24678;DHT22;12800;53.094;8.778;2022-09-13T02:06:50;18.80;80.50
24678;DHT22;12800;53.094;8.778;2022-09-13T02:09:20;18.80;80.60
24678;DHT22;12800;53.094;8.778;2022-09-13T02:11:52;18.80;80.80
24678;DHT22;12800;53.094;8.778;2022-09-13T02:14:28;18.80;80.90
24678;DHT22;12800;53.094;8.778;2022-09-13T02:17:02;18.80;80.90
24678;DHT22;12800;53.094;8.778;2022-09-13T02:21:59;18.80;81.10
24678;DHT22;12800;53.094;8.778;2022-09-13T02:24:34;18.80;81.30
24678;DHT22;12800;53.094;8.778;2022-09-13T02:27:05;18.80;81.40
24678;DHT22;12800;53.094;8.778;2022-09-13T02:29:35;18.70;81.40
24678;DHT22;12800;53.094;8.778;2022-09-13T02:32:03;18.70;81.40
24678;DHT22;12800;53.094;8.778;2022-09-13T02:34:35;18.70;81.40
24678;DHT22;12800;53.094;8.778;2022-09-13T02:37:03;18.70;82.40
24678;DHT22;12800;53.094;8.778;2022-09-13T02:39:32;18.70;81.80
24678;DHT22;12800;53.094;8.778;2022-09-13T02:42:20;18.70;81.80
24678;DHT22;12800;53.094;8.778;2022-09-13T02:44:50;18.70;82.00
24678;DHT22;12800;53.094;8.778;2022-09-13T02:47:31;18.70;82.20
24678;DHT22;12800;53.094;8.778;2022-09-13T03:00:31;18.60;82.50
24678;DHT22;12800;53.094;8.778;2022-09-13T03:03:01;18.60;82.50
24678;DHT22;12800;53.094;8.778;2022-09-13T03:05:27;18.60;82.60
24678;DHT22;12800;53.094;8.778;2022-09-13T03:07:53;18.60;82.70
24678;DHT22;12800;53.094;8.778;2022-09-13T03:10:19;18.60;82.70
24678;DHT22;12800;53.094;8.778;2022-09-13T03:13:10;18.50;82.80
24678;DHT22;12800;53.094;8.778;2022-09-13T03:15:53;18.60;82.90
24678;DHT22;12800;53.094;8.778;2022-09-13T03:32:19;18.50;83.40
24678;DHT22;12800;53.094;8.778;2022-09-13T03:38:18;18.50;83.50
24678;DHT22;12800;53.094;8.778;2022-09-13T03:40:56;18.50;84.50
24678;DHT22;12800;53.094;8.778;2022-09-13T03:43:30;18.50;83.80
24678;DHT22;12800;53.094;8.778;2022-09-13T03:46:03;18.50;83.90
24678;DHT22;12800;53.094;8.778;2022-09-13T03:48:31;18.50;83.90
24678;DHT22;12800;53.094;8.778;2022-09-13T03:51:01;18.50;84.00
24678;DHT22;12800;53.094;8.778;2022-09-13T03:53:28;18.50;84.00
24678;DHT22;12800;53.094;8.778;2022-09-13T03:55:55;18.50;84.10
24678;DHT22;12800;53.094;8.778;2022-09-13T03:58:21;18.50;84.20
24678;DHT22;12800;53.094;8.778;2022-09-13T04:00:47;18.50;84.30
24678;DHT22;12800;53.094;8.778;2022-09-13T04:03:13;18.50;84.40
24678;DHT22;12800;53.094;8.778;2022-09-13T04:05:39;18.50;84.40
24678;DHT22;12800;53.094;8.778;2022-09-13T04:08:06;18.50;84.40
24678;DHT22;12800;53.094;8.778;2022-09-13T04:10:33;18.50;84.50
24678;DHT22;12800;53.094;8.778;2022-09-13T04:12:59;18.50;84.40
24678;DHT22;12800;53.094;8.778;2022-09-13T04:15:25;18.50;84.40
24678;DHT22;12800;53.094;8.778;2022-09-13T04:17:51;18.50;84.50
24678;DHT22;12800;53.094;8.778;2022-09-13T04:20:17;18.50;84.50
24678;DHT22;12800;53.094;8.778;2022-09-13T04:22:49;18.50;84.50
24678;DHT22;12800;53.094;8.778;2022-09-13T04:25:14;18.50;84.60
24678;DHT22;12800;53.094;8.778;2022-09-13T04:27:40;18.50;84.60
24678;DHT22;12800;53.094;8.778;2022-09-13T04:30:06;18.50;84.60
24678;DHT22;12800;53.094;8.778;2022-09-13T04:32:32;18.50;84.60
24678;DHT22;12800;53.094;8.778;2022-09-13T04:34:58;18.50;84.70
24678;DHT22;12800;53.094;8.778;2022-09-13T04:37:23;18.50;84.70
24678;DHT22;12800;53.094;8.778;2022-09-13T04:39:49;18.50;84.90
24678;DHT22;12800;53.094;8.778;2022-09-13T04:42:14;18.60;85.00
24678;DHT22;12800;53.094;8.778;2022-09-13T04:44:40;18.50;85.00
24678;DHT22;12800;53.094;8.778;2022-09-13T04:47:05;18.50;85.10
24678;DHT22;12800;53.094;8.778;2022-09-13T04:49:32;18.60;85.30
24678;DHT22;12800;53.094;8.778;2022-09-13T04:51:58;18.50;85.40
24678;DHT22;12800;53.094;8.778;2022-09-13T04:54:23;18.60;85.60
24678;DHT22;12800;53.094;8.778;2022-09-13T04:56:49;18.50;85.60
24678;DHT22;12800;53.094;8.778;2022-09-13T04:59:15;18.50;85.80
24678;DHT22;12800;53.094;8.778;2022-09-13T05:01:41;18.50;86.00
24678;DHT22;12800;53.094;8.778;2022-09-13T05:04:08;18.50;86.20
24678;DHT22;12800;53.094;8.778;2022-09-13T05:06:34;18.50;86.50
24678;DHT22;12800;53.094;8.778;2022-09-13T05:09:00;18.50;86.60
24678;DHT22;12800;53.094;8.778;2022-09-13T05:11:27;18.50;86.80
24678;DHT22;12800;53.094;8.778;2022-09-13T05:13:55;18.50;87.00
24678;DHT22;12800;53.094;8.778;2022-09-13T05:16:22;18.50;87.10
24678;DHT22;12800;53.094;8.778;2022-09-13T05:18:49;18.50;87.30
24678;DHT22;12800;53.094;8.778;2022-09-13T05:21:14;18.50;87.30
24678;DHT22;12800;53.094;8.778;2022-09-13T05:23:40;18.50;87.50
24678;DHT22;12800;53.094;8.778;2022-09-13T05:26:06;18.50;87.60
24678;DHT22;12800;53.094;8.778;2022-09-13T05:28:34;18.50;87.70
24678;DHT22;12800;53.094;8.778;2022-09-13T05:31:18;18.50;87.80
24678;DHT22;12800;53.094;8.778;2022-09-13T05:33:46;18.60;88.00
24678;DHT22;12800;53.094;8.778;2022-09-13T05:36:12;18.60;88.00
24678;DHT22;12800;53.094;8.778;2022-09-13T05:38:37;18.60;88.00
24678;DHT22;12800;53.094;8.778;2022-09-13T05:41:04;18.60;88.20
24678;DHT22;12800;53.094;8.778;2022-09-13T05:43:32;18.70;88.30
24678;DHT22;12800;53.094;8.778;2022-09-13T05:46:08;18.60;88.30
24678;DHT22;12800;53.094;8.778;2022-09-13T05:48:34;18.60;88.40
24678;DHT22;12800;53.094;8.778;2022-09-13T05:53:36;18.70;88.50
24678;DHT22;12800;53.094;8.778;2022-09-13T05:56:07;18.70;88.50
24678;DHT22;12800;53.094;8.778;2022-09-13T05:58:33;18.70;88.70
24678;DHT22;12800;53.094;8.778;2022-09-13T06:00:59;18.80;88.80
24678;DHT22;12800;53.094;8.778;2022-09-13T06:03:25;18.70;88.70
24678;DHT22;12800;53.094;8.778;2022-09-13T06:05:57;18.70;88.70
24678;DHT22;12800;53.094;8.778;2022-09-13T06:08:24;18.70;88.70
24678;DHT22;12800;53.094;8.778;2022-09-13T06:11:01;18.70;89.00
24678;DHT22;12800;53.094;8.778;2022-09-13T06:13:28;18.70;89.10
24678;DHT22;12800;53.094;8.778;2022-09-13T06:15:55;18.70;89.30
24678;DHT22;12800;53.094;8.778;2022-09-13T06:18:22;18.70;89.40
24678;DHT22;12800;53.094;8.778;2022-09-13T06:20:49;18.70;89.60
24678;DHT22;12800;53.094;8.778;2022-09-13T06:23:15;18.70;89.80
24678;DHT22;12800;53.094;8.778;2022-09-13T06:25:41;18.80;90.00
24678;DHT22;12800;53.094;8.778;2022-09-13T06:28:07;18.80;90.00
24678;DHT22;12800;53.094;8.778;2022-09-13T06:30:34;18.80;90.00
24678;DHT22;12800;53.094;8.778;2022-09-13T06:33:00;18.80;90.10
24678;DHT22;12800;53.094;8.778;2022-09-13T06:35:25;18.90;90.00
24678;DHT22;12800;53.094;8.778;2022-09-13T06:37:54;18.90;90.00
24678;DHT22;12800;53.094;8.778;2022-09-13T06:40:21;18.90;90.00
24678;DHT22;12800;53.094;8.778;2022-09-13T06:42:47;18.90;90.00
24678;DHT22;12800;53.094;8.778;2022-09-13T06:45:13;18.90;89.90
24678;DHT22;12800;53.094;8.778;2022-09-13T06:47:38;18.90;89.90
24678;DHT22;12800;53.094;8.778;2022-09-13T06:50:05;18.90;89.70
24678;DHT22;12800;53.094;8.778;2022-09-13T06:52:31;18.90;89.80
24678;DHT22;12800;53.094;8.778;2022-09-13T06:54:57;19.00;90.20
24678;DHT22;12800;53.094;8.778;2022-09-13T06:57:23;18.90;89.80
24678;DHT22;12800;53.094;8.778;2022-09-13T06:59:49;19.00;89.80
24678;DHT22;12800;53.094;8.778;2022-09-13T07:02:14;19.00;89.90
24678;DHT22;12800;53.094;8.778;2022-09-13T07:04:40;19.00;89.90
24678;DHT22;12800;53.094;8.778;2022-09-13T07:07:05;19.10;89.80
24678;DHT22;12800;53.094;8.778;2022-09-13T07:09:31;19.10;89.70
24678;DHT22;12800;53.094;8.778;2022-09-13T07:11:58;19.10;89.80
24678;DHT22;12800;53.094;8.778;2022-09-13T07:14:26;19.20;89.80
24678;DHT22;12800;53.094;8.778;2022-09-13T07:16:53;19.20;89.80
24678;DHT22;12800;53.094;8.778;2022-09-13T07:19:24;19.20;89.90
24678;DHT22;12800;53.094;8.778;2022-09-13T07:21:54;19.30;89.80
24678;DHT22;12800;53.094;8.778;2022-09-13T07:24:20;19.30;89.70
24678;DHT22;12800;53.094;8.778;2022-09-13T07:26:46;19.30;89.60
24678;DHT22;12800;53.094;8.778;2022-09-13T07:29:14;19.30;89.50
24678;DHT22;12800;53.094;8.778;2022-09-13T07:31:51;19.40;89.60
24678;DHT22;12800;53.094;8.778;2022-09-13T07:34:20;19.40;89.50
24678;DHT22;12800;53.094;8.778;2022-09-13T07:36:47;19.40;89.40
24678;DHT22;12800;53.094;8.778;2022-09-13T07:39:13;19.50;89.20
24678;DHT22;12800;53.094;8.778;2022-09-13T07:41:39;19.50;89.10
24678;DHT22;12800;53.094;8.778;2022-09-13T07:44:05;19.50;89.30
24678;DHT22;12800;53.094;8.778;2022-09-13T07:46:33;19.60;89.20
24678;DHT22;12800;53.094;8.778;2022-09-13T07:49:02;19.60;89.10
24678;DHT22;12800;53.094;8.778;2022-09-13T07:51:31;19.60;88.90
24678;DHT22;12800;53.094;8.778;2022-09-13T07:53:59;19.70;88.80
24678;DHT22;12800;53.094;8.778;2022-09-13T07:56:28;19.80;88.80
24678;DHT22;12800;53.094;8.778;2022-09-13T07:58:55;19.80;88.80
24678;DHT22;12800;53.094;8.778;2022-09-13T08:01:28;19.80;88.10
24678;DHT22;12800;53.094;8.778;2022-09-13T08:03:59;19.80;88.00
24678;DHT22;12800;53.094;8.778;2022-09-13T08:06:27;19.90;88.10
24678;DHT22;12800;53.094;8.778;2022-09-13T08:08:53;19.90;88.00
24678;DHT22;12800;53.094;8.778;2022-09-13T08:11:21;19.90;87.90
24678;DHT22;12800;53.094;8.778;2022-09-13T08:13:48;19.90;87.60
24678;DHT22;12800;53.094;8.778;2022-09-13T08:16:16;19.90;87.70
24678;DHT22;12800;53.094;8.778;2022-09-13T08:18:44;19.90;88.60
24678;DHT22;12800;53.094;8.778;2022-09-13T08:21:10;19.90;87.50
24678;DHT22;12800;53.094;8.778;2022-09-13T08:23:36;19.90;87.30
24678;DHT22;12800;53.094;8.778;2022-09-13T08:26:02;19.90;87.60
24678;DHT22;12800;53.094;8.778;2022-09-13T08:28:28;19.90;87.40
24678;DHT22;12800;53.094;8.778;2022-09-13T08:31:01;19.90;87.30
24678;DHT22;12800;53.094;8.778;2022-09-13T08:33:26;19.80;87.00
24678;DHT22;12800;53.094;8.778;2022-09-13T08:35:52;19.80;87.20
24678;DHT22;12800;53.094;8.778;2022-09-13T08:38:20;19.70;87.40
24678;DHT22;12800;53.094;8.778;2022-09-13T08:41:04;19.60;86.40
24678;DHT22;12800;53.094;8.778;2022-09-13T08:46:22;19.30;86.10
24678;DHT22;12800;53.094;8.778;2022-09-13T08:48:53;19.20;86.20
24678;DHT22;12800;53.094;8.778;2022-09-13T08:51:31;19.20;86.60
24678;DHT22;12800;53.094;8.778;2022-09-13T08:54:00;19.10;87.00
24678;DHT22;12800;53.094;8.778;2022-09-13T08:56:41;19.10;87.30
24678;DHT22;12800;53.094;8.778;2022-09-13T09:02:21;19.20;87.70
24678;DHT22;12800;53.094;8.778;2022-09-13T09:04:57;19.30;87.80
24678;DHT22;12800;53.094;8.778;2022-09-13T09:07:32;19.30;87.70
24678;DHT22;12800;53.094;8.778;2022-09-13T09:10:06;19.40;87.70
24678;DHT22;12800;53.094;8.778;2022-09-13T09:12:38;19.40;87.70
24678;DHT22;12800;53.094;8.778;2022-09-13T09:15:16;19.40;87.70
24678;DHT22;12800;53.094;8.778;2022-09-13T09:17:48;19.50;87.70
24678;DHT22;12800;53.094;8.778;2022-09-13T09:20:24;19.50;87.90
24678;DHT22;12800;53.094;8.778;2022-09-13T09:22:52;19.60;87.90
24678;DHT22;12800;53.094;8.778;2022-09-13T09:25:22;19.70;87.50
24678;DHT22;12800;53.094;8.778;2022-09-13T09:27:49;19.80;87.50
24678;DHT22;12800;53.094;8.778;2022-09-13T09:30:15;19.90;87.40
24678;DHT22;12800;53.094;8.778;2022-09-13T09:33:05;20.00;87.20
24678;DHT22;12800;53.094;8.778;2022-09-13T09:38:41;20.10;84.70
24678;DHT22;12800;53.094;8.778;2022-09-13T09:41:12;20.20;84.70
24678;DHT22;12800;53.094;8.778;2022-09-13T09:43:43;20.20;84.10
24678;DHT22;12800;53.094;8.778;2022-09-13T09:46:11;20.30;83.30
24678;DHT22;12800;53.094;8.778;2022-09-13T09:48:53;20.30;81.90
24678;DHT22;12800;53.094;8.778;2022-09-13T09:51:19;20.30;80.60
24678;DHT22;12800;53.094;8.778;2022-09-13T09:53:49;20.40;80.30
24678;DHT22;12800;53.094;8.778;2022-09-13T09:56:27;20.30;79.50
24678;DHT22;12800;53.094;8.778;2022-09-13T09:58:54;20.30;78.80
24678;DHT22;12800;53.094;8.778;2022-09-13T10:04:03;20.30;78.40
24678;DHT22;12800;53.094;8.778;2022-09-13T10:06:30;20.40;77.00
24678;DHT22;12800;53.094;8.778;2022-09-13T10:08:59;20.50;76.20
24678;DHT22;12800;53.094;8.778;2022-09-13T10:11:58;20.50;75.90
24678;DHT22;12800;53.094;8.778;2022-09-13T10:14:44;20.50;75.60
24678;DHT22;12800;53.094;8.778;2022-09-13T10:17:25;20.40;75.20
24678;DHT22;12800;53.094;8.778;2022-09-13T10:19:58;20.40;75.20
24678;DHT22;12800;53.094;8.778;2022-09-13T10:22:26;20.40;75.00
24678;DHT22;12800;53.094;8.778;2022-09-13T10:24:52;20.40;75.00
24678;DHT22;12800;53.094;8.778;2022-09-13T10:27:23;20.40;75.00
24678;DHT22;12800;53.094;8.778;2022-09-13T10:29:51;20.30;74.40
24678;DHT22;12800;53.094;8.778;2022-09-13T10:32:20;20.40;74.60
24678;DHT22;12800;53.094;8.778;2022-09-13T10:34:46;20.50;74.30
24678;DHT22;12800;53.094;8.778;2022-09-13T10:37:27;20.70;74.10
24678;DHT22;12800;53.094;8.778;2022-09-13T10:42:31;20.80;71.70
24678;DHT22;12800;53.094;8.778;2022-09-13T10:45:05;20.90;70.80
24678;DHT22;12800;53.094;8.778;2022-09-13T10:47:42;20.90;70.70
24678;DHT22;12800;53.094;8.778;2022-09-13T10:50:20;21.00;70.20
24678;DHT22;12800;53.094;8.778;2022-09-13T11:08:57;21.50;66.30
24678;DHT22;12800;53.094;8.778;2022-09-13T11:11:32;21.50;66.70
24678;DHT22;12800;53.094;8.778;2022-09-13T11:17:14;21.40;66.50
24678;DHT22;12800;53.094;8.778;2022-09-13T11:25:33;21.30;65.10
24678;DHT22;12800;53.094;8.778;2022-09-13T11:33:54;21.30;62.40
24678;DHT22;12800;53.094;8.778;2022-09-13T11:39:46;21.40;62.20
24678;DHT22;12800;53.094;8.778;2022-09-13T11:42:24;21.40;62.30
24678;DHT22;12800;53.094;8.778;2022-09-13T11:44:59;21.40;62.40
24678;DHT22;12800;53.094;8.778;2022-09-13T11:53:01;21.50;62.10
24678;DHT22;12800;53.094;8.778;2022-09-13T11:55:45;21.60;62.00
24678;DHT22;12800;53.094;8.778;2022-09-13T11:58:46;21.70;61.30
24678;DHT22;12800;53.094;8.778;2022-09-13T12:01:18;21.80;60.60
24678;DHT22;12800;53.094;8.778;2022-09-13T12:04:04;21.90;60.10
24678;DHT22;12800;53.094;8.778;2022-09-13T12:06:46;21.90;59.80
24678;DHT22;12800;53.094;8.778;2022-09-13T12:09:31;22.00;59.30
24678;DHT22;12800;53.094;8.778;2022-09-13T12:12:06;22.10;59.20
24678;DHT22;12800;53.094;8.778;2022-09-13T12:14:49;22.10;58.70
24678;DHT22;12800;53.094;8.778;2022-09-13T12:17:39;22.20;58.80
24678;DHT22;12800;53.094;8.778;2022-09-13T12:23:00;22.40;58.40
24678;DHT22;12800;53.094;8.778;2022-09-13T12:25:49;22.40;58.00
24678;DHT22;12800;53.094;8.778;2022-09-13T12:28:26;22.50;57.80
24678;DHT22;12800;53.094;8.778;2022-09-13T12:31:09;22.30;57.80
24678;DHT22;12800;53.094;8.778;2022-09-13T12:33:41;22.30;58.10
24678;DHT22;12800;53.094;8.778;2022-09-13T12:39:30;22.30;58.10
24678;DHT22;12800;53.094;8.778;2022-09-13T12:54:00;22.60;58.00
24678;DHT22;12800;53.094;8.778;2022-09-13T12:56:53;22.60;57.50
24678;DHT22;12800;53.094;8.778;2022-09-13T13:02:28;22.70;56.80
24678;DHT22;12800;53.094;8.778;2022-09-13T13:04:58;22.60;56.90
24678;DHT22;12800;53.094;8.778;2022-09-13T13:07:26;22.60;57.00
24678;DHT22;12800;53.094;8.778;2022-09-13T13:09:55;22.70;56.50
24678;DHT22;12800;53.094;8.778;2022-09-13T13:12:36;22.70;56.50
24678;DHT22;12800;53.094;8.778;2022-09-13T13:17:53;22.90;56.10
24678;DHT22;12800;53.094;8.778;2022-09-13T13:21:39;22.90;55.60
24678;DHT22;12800;53.094;8.778;2022-09-13T13:23:37;23.00;55.80
24678;DHT22;12800;53.094;8.778;2022-09-13T13:26:08;23.10;55.70
24678;DHT22;12800;53.094;8.778;2022-09-13T13:39:08;23.50;54.30
24678;DHT22;12800;53.094;8.778;2022-09-13T14:00:16;23.60;53.40
24678;DHT22;12800;53.094;8.778;2022-09-13T14:05:39;23.70;52.90
24678;DHT22;12800;53.094;8.778;2022-09-13T14:08:34;23.60;53.00
24678;DHT22;12800;53.094;8.778;2022-09-13T14:11:24;23.50;53.70
24678;DHT22;12800;53.094;8.778;2022-09-13T14:19:30;23.20;53.70
24678;DHT22;12800;53.094;8.778;2022-09-13T14:22:12;23.10;53.80
24678;DHT22;12800;53.094;8.778;2022-09-13T14:24:49;23.10;53.80
24678;DHT22;12800;53.094;8.778;2022-09-13T14:27:25;23.10;53.40
24678;DHT22;12800;53.094;8.778;2022-09-13T14:29:56;23.10;53.70
24678;DHT22;12800;53.094;8.778;2022-09-13T14:32:25;23.10;54.10
24678;DHT22;12800;53.094;8.778;2022-09-13T14:34:59;23.10;54.30
24678;DHT22;12800;53.094;8.778;2022-09-13T14:37:43;23.10;54.70
24678;DHT22;12800;53.094;8.778;2022-09-13T14:40:21;23.10;54.30
24678;DHT22;12800;53.094;8.778;2022-09-13T14:42:49;23.10;54.50
24678;DHT22;12800;53.094;8.778;2022-09-13T14:45:20;23.00;54.10
24678;DHT22;12800;53.094;8.778;2022-09-13T14:50:36;23.00;53.90
24678;DHT22;12800;53.094;8.778;2022-09-13T14:53:07;23.00;53.60
24678;DHT22;12800;53.094;8.778;2022-09-13T14:55:41;23.00;53.30
24678;DHT22;12800;53.094;8.778;2022-09-13T14:58:15;23.10;53.70
24678;DHT22;12800;53.094;8.778;2022-09-13T15:00:49;23.20;53.50
24678;DHT22;12800;53.094;8.778;2022-09-13T15:03:17;23.30;53.90
24678;DHT22;12800;53.094;8.778;2022-09-13T15:05:52;23.40;54.80
24678;DHT22;12800;53.094;8.778;2022-09-13T15:08:43;23.50;55.40
24678;DHT22;12800;53.094;8.778;2022-09-13T15:11:28;23.50;55.40
24678;DHT22;12800;53.094;8.778;2022-09-13T15:16:57;23.60;55.70
24678;DHT22;12800;53.094;8.778;2022-09-13T15:21:49;24.10;55.30
24678;DHT22;12800;53.094;8.778;2022-09-13T15:24:22;24.00;55.00
24678;DHT22;12800;53.094;8.778;2022-09-13T15:27:04;23.80;55.30
24678;DHT22;12800;53.094;8.778;2022-09-13T15:29:30;23.90;55.50
24678;DHT22;12800;53.094;8.778;2022-09-13T15:32:00;23.90;55.40
24678;DHT22;12800;53.094;8.778;2022-09-13T15:34:27;23.90;55.60
24678;DHT22;12800;53.094;8.778;2022-09-13T15:39:27;23.70;55.90
24678;DHT22;12800;53.094;8.778;2022-09-13T15:41:58;23.70;55.70
24678;DHT22;12800;53.094;8.778;2022-09-13T15:44:25;23.60;55.80
24678;DHT22;12800;53.094;8.778;2022-09-13T15:46:53;23.60;55.90
24678;DHT22;12800;53.094;8.778;2022-09-13T15:49:21;23.40;55.70
24678;DHT22;12800;53.094;8.778;2022-09-13T15:51:53;23.50;56.10
24678;DHT22;12800;53.094;8.778;2022-09-13T15:54:19;23.70;55.80
24678;DHT22;12800;53.094;8.778;2022-09-13T15:56:47;23.90;55.60
24678;DHT22;12800;53.094;8.778;2022-09-13T15:59:17;23.90;55.70
24678;DHT22;12800;53.094;8.778;2022-09-13T16:01:44;23.80;54.50
24678;DHT22;12800;53.094;8.778;2022-09-13T16:04:10;23.70;54.50
24678;DHT22;12800;53.094;8.778;2022-09-13T16:06:36;23.40;55.50
24678;DHT22;12800;53.094;8.778;2022-09-13T16:09:19;23.30;55.00
24678;DHT22;12800;53.094;8.778;2022-09-13T16:11:46;23.10;55.00
24678;DHT22;12800;53.094;8.778;2022-09-13T16:14:12;22.80;55.40
24678;DHT22;12800;53.094;8.778;2022-09-13T16:16:38;22.70;55.70
24678;DHT22;12800;53.094;8.778;2022-09-13T16:19:04;22.70;55.90
24678;DHT22;12800;53.094;8.778;2022-09-13T16:21:30;22.70;56.20
24678;DHT22;12800;53.094;8.778;2022-09-13T16:23:55;22.70;55.90
24678;DHT22;12800;53.094;8.778;2022-09-13T16:26:21;22.60;55.60
24678;DHT22;12800;53.094;8.778;2022-09-13T16:28:47;22.40;55.70
24678;DHT22;12800;53.094;8.778;2022-09-13T16:31:12;22.10;56.00
24678;DHT22;12800;53.094;8.778;2022-09-13T16:33:41;22.00;56.40
24678;DHT22;12800;53.094;8.778;2022-09-13T16:36:10;21.80;56.60
24678;DHT22;12800;53.094;8.778;2022-09-13T16:38:37;21.60;56.60
24678;DHT22;12800;53.094;8.778;2022-09-13T16:41:06;21.50;56.80
24678;DHT22;12800;53.094;8.778;2022-09-13T16:43:32;21.30;57.10
24678;DHT22;12800;53.094;8.778;2022-09-13T16:45:59;21.30;57.30
24678;DHT22;12800;53.094;8.778;2022-09-13T16:48:24;21.20;57.40
24678;DHT22;12800;53.094;8.778;2022-09-13T16:50:50;21.10;57.70
24678;DHT22;12800;53.094;8.778;2022-09-13T16:53:17;21.10;57.70
24678;DHT22;12800;53.094;8.778;2022-09-13T16:55:44;21.10;58.00
24678;DHT22;12800;53.094;8.778;2022-09-13T16:58:10;21.00;57.80
24678;DHT22;12800;53.094;8.778;2022-09-13T17:00:36;20.90;57.90
24678;DHT22;12800;53.094;8.778;2022-09-13T17:03:01;20.90;58.00
24678;DHT22;12800;53.094;8.778;2022-09-13T17:05:27;20.80;57.90
24678;DHT22;12800;53.094;8.778;2022-09-13T17:07:52;20.70;58.00
24678;DHT22;12800;53.094;8.778;2022-09-13T17:10:19;20.60;57.80
24678;DHT22;12800;53.094;8.778;2022-09-13T17:12:44;20.50;58.10
24678;DHT22;12800;53.094;8.778;2022-09-13T17:15:10;20.50;58.40
24678;DHT22;12800;53.094;8.778;2022-09-13T17:17:36;20.40;58.40
24678;DHT22;12800;53.094;8.778;2022-09-13T17:20:04;20.40;58.60
24678;DHT22;12800;53.094;8.778;2022-09-13T17:22:32;20.30;58.80
24678;DHT22;12800;53.094;8.778;2022-09-13T17:24:58;20.30;59.20
24678;DHT22;12800;53.094;8.778;2022-09-13T17:27:26;20.30;59.00
24678;DHT22;12800;53.094;8.778;2022-09-13T17:29:51;20.30;59.10
24678;DHT22;12800;53.094;8.778;2022-09-13T17:32:18;20.30;59.00
24678;DHT22;12800;53.094;8.778;2022-09-13T17:34:44;20.20;59.10
24678;DHT22;12800;53.094;8.778;2022-09-13T17:37:09;20.20;59.10
24678;DHT22;12800;53.094;8.778;2022-09-13T17:39:35;20.20;59.10
24678;DHT22;12800;53.094;8.778;2022-09-13T17:42:01;20.10;59.00
24678;DHT22;12800;53.094;8.778;2022-09-13T17:44:27;20.10;59.00
24678;DHT22;12800;53.094;8.778;2022-09-13T17:46:52;20.00;59.00
24678;DHT22;12800;53.094;8.778;2022-09-13T17:49:18;19.90;59.20
24678;DHT22;12800;53.094;8.778;2022-09-13T17:51:44;19.90;59.20
24678;DHT22;12800;53.094;8.778;2022-09-13T17:54:12;19.90;59.40
24678;DHT22;12800;53.094;8.778;2022-09-13T17:56:40;19.80;59.40
24678;DHT22;12800;53.094;8.778;2022-09-13T17:59:17;19.80;59.60
24678;DHT22;12800;53.094;8.778;2022-09-13T18:01:46;19.70;59.80
24678;DHT22;12800;53.094;8.778;2022-09-13T18:04:14;19.70;59.90
24678;DHT22;12800;53.094;8.778;2022-09-13T18:06:40;19.60;59.90
24678;DHT22;12800;53.094;8.778;2022-09-13T18:09:08;19.60;59.90
24678;DHT22;12800;53.094;8.778;2022-09-13T18:11:35;19.50;60.00
24678;DHT22;12800;53.094;8.778;2022-09-13T18:14:01;19.50;60.20
24678;DHT22;12800;53.094;8.778;2022-09-13T18:16:27;19.50;60.50
24678;DHT22;12800;53.094;8.778;2022-09-13T18:18:54;19.40;61.40
24678;DHT22;12800;53.094;8.778;2022-09-13T18:21:21;19.40;60.80
24678;DHT22;12800;53.094;8.778;2022-09-13T18:23:49;19.40;60.90
24678;DHT22;12800;53.094;8.778;2022-09-13T18:26:17;19.30;61.10
24678;DHT22;12800;53.094;8.778;2022-09-13T18:28:43;19.40;61.30
24678;DHT22;12800;53.094;8.778;2022-09-13T18:31:13;19.30;61.30
24678;DHT22;12800;53.094;8.778;2022-09-13T18:33:39;19.30;61.50
24678;DHT22;12800;53.094;8.778;2022-09-13T18:36:07;19.30;61.60
24678;DHT22;12800;53.094;8.778;2022-09-13T18:38:35;19.20;61.80
24678;DHT22;12800;53.094;8.778;2022-09-13T18:41:24;19.20;62.00
24678;DHT22;12800;53.094;8.778;2022-09-13T18:43:52;19.20;62.10
24678;DHT22;12800;53.094;8.778;2022-09-13T18:46:19;19.20;62.30
24678;DHT22;12800;53.094;8.778;2022-09-13T18:48:47;19.20;62.50
24678;DHT22;12800;53.094;8.778;2022-09-13T18:51:19;19.10;62.40